sensor_id;sensor_type;location;lat;lon;timestamp;pressure;altitude;pressure_sealevel;temperature;humidity
72896;BME280;61036;53.224;6.554;2022-09-28T00:00:37;99572.88;;;7.13;100.00
72896;BME280;61036;53.224;6.554;2022-09-28T00:03:07;99569.44;;;7.22;100.00
72896;BME280;61036;53.224;6.554;2022-09-28T00:05:35;99574.56;;;7.25;100.00
72896;BME280;61036;53.224;6.554;2022-09-28T00:08:00;99568.22;;;7.26;100.00
72896;BME280;61036;53.224;6.554;2022-09-28T00:10:28;99567.13;;;7.28;100.00
72896;BME280;61036;53.224;6.554;2022-09-28T00:12:54;99567.84;;;7.30;100.00
72896;BME280;61036;53.224;6.554;2022-09-28T00:15:20;99569.19;;;7.36;100.00
72896;BME280;61036;53.224;6.554;2022-09-28T00:17:46;99567.34;;;7.37;100.00
72896;BME280;61036;53.224;6.554;2022-09-28T00:20:15;99560.53;;;7.32;100.00
72896;BME280;61036;53.224;6.554;2022-09-28T00:22:42;99566.00;;;7.31;100.00
72896;BME280;61036;53.224;6.554;2022-09-28T00:25:08;99566.16;;;7.18;100.00
72896;BME280;61036;53.224;6.554;2022-09-28T00:27:33;99564.19;;;7.31;100.00
72896;BME280;61036;53.224;6.554;2022-09-28T00:30:02;99561.53;;;7.31;100.00
72896;BME280;61036;53.224;6.554;2022-09-28T00:32:33;99565.28;;;7.40;100.00
72896;BME280;61036;53.224;6.554;2022-09-28T00:34:58;99560.75;;;7.41;100.00
72896;BME280;61036;53.224;6.554;2022-09-28T00:37:24;99563.47;;;7.29;100.00
72896;BME280;61036;53.224;6.554;2022-09-28T00:39:50;99564.72;;;7.25;100.00
72896;BME280;61036;53.224;6.554;2022-09-28T00:42:21;99559.84;;;7.19;100.00
72896;BME280;61036;53.224;6.554;2022-09-28T00:44:56;99562.03;;;7.14;100.00
72896;BME280;61036;53.224;6.554;2022-09-28T00:47:44;99556.78;;;7.13;100.00
72896;BME280;61036;53.224;6.554;2022-09-28T00:52:50;99552.75;;;7.18;100.00
72896;BME280;61036;53.224;6.554;2022-09-28T00:55:25;99556.03;;;7.22;100.00
72896;BME280;61036;53.224;6.554;2022-09-28T00:57:57;99551.19;;;7.16;100.00
72896;BME280;61036;53.224;6.554;2022-09-28T01:00:29;99550.56;;;7.23;100.00
72896;BME280;61036;53.224;6.554;2022-09-28T01:03:02;99542.78;;;7.20;100.00
72896;BME280;61036;53.224;6.554;2022-09-28T01:05:28;99543.28;;;7.14;100.00
72896;BME280;61036;53.224;6.554;2022-09-28T01:07:57;99541.94;;;7.08;100.00
72896;BME280;61036;53.224;6.554;2022-09-28T01:10:27;99537.81;;;7.04;100.00
72896;BME280;61036;53.224;6.554;2022-09-28T01:12:54;99537.06;;;7.02;100.00
72896;BME280;61036;53.224;6.554;2022-09-28T01:15:22;99541.44;;;7.03;100.00
72896;BME280;61036;53.224;6.554;2022-09-28T01:23:41;99536.72;;;6.96;100.00
72896;BME280;61036;53.224;6.554;2022-09-28T01:28:53;99536.63;;;6.86;100.00
72896;BME280;61036;53.224;6.554;2022-09-28T01:31:28;99534.31;;;6.81;100.00
72896;BME280;61036;53.224;6.554;2022-09-28T01:34:04;99530.28;;;6.76;100.00
72896;BME280;61036;53.224;6.554;2022-09-28T01:36:40;99533.34;;;6.71;100.00
72896;BME280;61036;53.224;6.554;2022-09-28T01:39:14;99524.81;;;6.66;100.00
72896;BME280;61036;53.224;6.554;2022-09-28T01:41:43;99529.56;;;6.62;100.00
72896;BME280;61036;53.224;6.554;2022-09-28T01:44:13;99526.88;;;6.62;100.00
72896;BME280;61036;53.224;6.554;2022-09-28T01:46:42;99530.78;;;6.58;100.00
72896;BME280;61036;53.224;6.554;2022-09-28T01:49:19;99531.25;;;6.63;100.00
72896;BME280;61036;53.224;6.554;2022-09-28T01:54:55;99543.44;;;6.68;100.00
72896;BME280;61036;53.224;6.554;2022-09-28T01:57:33;99541.88;;;6.65;100.00
72896;BME280;61036;53.224;6.554;2022-09-28T02:05:39;99539.41;;;6.73;100.00
72896;BME280;61036;53.224;6.554;2022-09-28T02:08:30;99539.91;;;6.78;100.00
72896;BME280;61036;53.224;6.554;2022-09-28T02:11:10;99538.81;;;6.81;100.00
72896;BME280;61036;53.224;6.554;2022-09-28T02:16:39;99537.81;;;6.93;100.00
72896;BME280;61036;53.224;6.554;2022-09-28T02:19:11;99536.84;;;6.94;100.00
72896;BME280;61036;53.224;6.554;2022-09-28T02:24:37;99542.09;;;6.96;100.00
72896;BME280;61036;53.224;6.554;2022-09-28T02:27:13;99530.03;;;6.90;100.00
72896;BME280;61036;53.224;6.554;2022-09-28T02:29:43;99530.63;;;6.94;100.00
72896;BME280;61036;53.224;6.554;2022-09-28T02:32:09;99531.72;;;6.91;100.00
72896;BME280;61036;53.224;6.554;2022-09-28T02:34:35;99533.56;;;6.91;100.00
72896;BME280;61036;53.224;6.554;2022-09-28T02:37:03;99532.72;;;6.90;100.00
72896;BME280;61036;53.224;6.554;2022-09-28T02:39:30;99533.94;;;6.86;100.00
72896;BME280;61036;53.224;6.554;2022-09-28T02:58:33;99530.78;;;6.81;100.00
72896;BME280;61036;53.224;6.554;2022-09-28T03:06:37;99532.13;;;6.75;100.00
72896;BME280;61036;53.224;6.554;2022-09-28T03:12:02;99517.97;;;6.73;100.00
72896;BME280;61036;53.224;6.554;2022-09-28T03:14:32;99526.00;;;6.73;100.00
72896;BME280;61036;53.224;6.554;2022-09-28T03:16:58;99525.06;;;6.74;100.00
72896;BME280;61036;53.224;6.554;2022-09-28T03:19:30;99521.66;;;6.72;100.00
72896;BME280;61036;53.224;6.554;2022-09-28T03:21:58;99520.06;;;6.70;100.00
72896;BME280;61036;53.224;6.554;2022-09-28T03:24:24;99531.88;;;6.67;100.00
72896;BME280;61036;53.224;6.554;2022-09-28T03:26:50;99531.16;;;6.65;100.00
72896;BME280;61036;53.224;6.554;2022-09-28T03:29:16;99537.84;;;6.59;100.00
72896;BME280;61036;53.224;6.554;2022-09-28T03:31:45;99532.00;;;6.54;100.00
72896;BME280;61036;53.224;6.554;2022-09-28T03:34:12;99524.69;;;6.56;100.00
72896;BME280;61036;53.224;6.554;2022-09-28T03:36:38;99530.06;;;6.56;100.00
72896;BME280;61036;53.224;6.554;2022-09-28T03:39:06;99533.69;;;6.55;100.00
72896;BME280;61036;53.224;6.554;2022-09-28T03:41:35;99527.38;;;6.45;100.00
72896;BME280;61036;53.224;6.554;2022-09-28T03:44:02;99540.03;;;6.43;100.00
72896;BME280;61036;53.224;6.554;2022-09-28T03:46:28;99536.63;;;6.41;100.00
72896;BME280;61036;53.224;6.554;2022-09-28T03:48:58;99537.34;;;6.43;100.00
72896;BME280;61036;53.224;6.554;2022-09-28T03:51:24;99539.16;;;6.43;100.00
72896;BME280;61036;53.224;6.554;2022-09-28T03:53:55;99546.22;;;6.32;100.00
72896;BME280;61036;53.224;6.554;2022-09-28T03:56:24;99534.53;;;6.33;100.00
72896;BME280;61036;53.224;6.554;2022-09-28T03:58:50;99541.47;;;6.36;100.00
72896;BME280;61036;53.224;6.554;2022-09-28T04:01:21;99540.63;;;6.35;100.00
72896;BME280;61036;53.224;6.554;2022-09-28T04:03:52;99534.78;;;6.41;100.00
72896;BME280;61036;53.224;6.554;2022-09-28T04:06:22;99541.81;;;6.31;100.00
72896;BME280;61036;53.224;6.554;2022-09-28T04:08:48;99536.72;;;6.28;100.00
72896;BME280;61036;53.224;6.554;2022-09-28T04:11:14;99534.03;;;6.28;100.00
72896;BME280;61036;53.224;6.554;2022-09-28T04:13:40;99532.84;;;6.32;100.00
72896;BME280;61036;53.224;6.554;2022-09-28T04:16:09;99535.38;;;6.34;100.00
72896;BME280;61036;53.224;6.554;2022-09-28T04:18:35;99534.03;;;6.28;100.00
72896;BME280;61036;53.224;6.554;2022-09-28T04:21:17;99538.19;;;6.21;100.00
72896;BME280;61036;53.224;6.554;2022-09-28T04:23:56;99534.00;;;6.06;100.00
72896;BME280;61036;53.224;6.554;2022-09-28T04:26:26;99530.59;;;6.04;100.00
72896;BME280;61036;53.224;6.554;2022-09-28T04:28:52;99528.53;;;6.07;100.00
72896;BME280;61036;53.224;6.554;2022-09-28T04:31:41;99538.16;;;6.10;100.00
72896;BME280;61036;53.224;6.554;2022-09-28T04:34:09;99537.19;;;6.11;100.00
72896;BME280;61036;53.224;6.554;2022-09-28T04:36:35;99543.88;;;6.16;100.00
72896;BME280;61036;53.224;6.554;2022-09-28T04:39:03;99543.88;;;6.16;100.00
72896;BME280;61036;53.224;6.554;2022-09-28T04:41:31;99551.56;;;6.21;100.00
72896;BME280;61036;53.224;6.554;2022-09-28T04:44:00;99552.13;;;6.13;100.00
72896;BME280;61036;53.224;6.554;2022-09-28T04:46:28;99547.66;;;6.14;100.00
72896;BME280;61036;53.224;6.554;2022-09-28T04:49:17;99551.44;;;6.11;100.00
72896;BME280;61036;53.224;6.554;2022-09-28T04:51:57;99556.66;;;6.13;100.00
72896;BME280;61036;53.224;6.554;2022-09-28T04:54:23;99556.50;;;6.03;100.00
72896;BME280;61036;53.224;6.554;2022-09-28T04:56:51;99549.31;;;6.04;100.00
72896;BME280;61036;53.224;6.554;2022-09-28T04:59:18;99549.56;;;6.01;100.00
72896;BME280;61036;53.224;6.554;2022-09-28T05:01:47;99558.09;;;6.06;100.00
72896;BME280;61036;53.224;6.554;2022-09-28T05:04:50;99559.41;;;6.00;100.00
72896;BME280;61036;53.224;6.554;2022-09-28T05:07:34;99557.25;;;6.05;100.00
72896;BME280;61036;53.224;6.554;2022-09-28T05:10:05;99561.84;;;6.03;100.00
72896;BME280;61036;53.224;6.554;2022-09-28T05:12:34;99560.63;;;6.07;100.00
72896;BME280;61036;53.224;6.554;2022-09-28T05:15:00;99565.28;;;6.05;100.00
72896;BME280;61036;53.224;6.554;2022-09-28T05:17:27;99566.00;;;6.07;100.00
72896;BME280;61036;53.224;6.554;2022-09-28T05:20:07;99559.69;;;6.08;100.00
72896;BME280;61036;53.224;6.554;2022-09-28T05:22:37;99564.34;;;6.17;100.00
72896;BME280;61036;53.224;6.554;2022-09-28T05:25:06;99564.19;;;6.19;100.00
72896;BME280;61036;53.224;6.554;2022-09-28T05:27:44;99558.75;;;6.21;100.00
72896;BME280;61036;53.224;6.554;2022-09-28T05:30:28;99564.09;;;6.21;100.00
72896;BME280;61036;53.224;6.554;2022-09-28T05:33:14;99561.66;;;6.17;100.00
72896;BME280;61036;53.224;6.554;2022-09-28T05:35:46;99560.19;;;6.25;100.00
72896;BME280;61036;53.224;6.554;2022-09-28T05:38:16;99552.06;;;6.26;100.00
72896;BME280;61036;53.224;6.554;2022-09-28T05:40:42;99561.78;;;6.27;100.00
72896;BME280;61036;53.224;6.554;2022-09-28T05:43:11;99560.19;;;6.25;100.00
72896;BME280;61036;53.224;6.554;2022-09-28T05:45:36;99554.00;;;6.24;100.00
72896;BME280;61036;53.224;6.554;2022-09-28T05:48:03;99553.75;;;6.27;100.00
72896;BME280;61036;53.224;6.554;2022-09-28T05:50:29;99555.59;;;6.27;100.00
72896;BME280;61036;53.224;6.554;2022-09-28T05:53:00;99553.41;;;6.32;100.00
72896;BME280;61036;53.224;6.554;2022-09-28T05:55:29;99550.25;;;6.38;100.00
72896;BME280;61036;53.224;6.554;2022-09-28T05:58:00;99551.81;;;6.40;100.00
72896;BME280;61036;53.224;6.554;2022-09-28T06:00:27;99550.88;;;6.41;100.00
72896;BME280;61036;53.224;6.554;2022-09-28T06:02:58;99554.88;;;6.36;100.00
72896;BME280;61036;53.224;6.554;2022-09-28T06:05:25;99552.06;;;6.37;100.00
72896;BME280;61036;53.224;6.554;2022-09-28T06:07:52;99557.91;;;6.43;100.00
72896;BME280;61036;53.224;6.554;2022-09-28T06:10:22;99553.78;;;6.50;100.00
72896;BME280;61036;53.224;6.554;2022-09-28T06:12:55;99568.16;;;6.60;100.00
72896;BME280;61036;53.224;6.554;2022-09-28T06:15:25;99561.81;;;6.61;100.00
72896;BME280;61036;53.224;6.554;2022-09-28T06:17:56;99567.78;;;6.64;100.00
72896;BME280;61036;53.224;6.554;2022-09-28T06:20:37;99562.81;;;6.60;100.00
72896;BME280;61036;53.224;6.554;2022-09-28T06:23:15;99565.34;;;6.61;100.00
72896;BME280;61036;53.224;6.554;2022-09-28T06:25:44;99558.69;;;6.56;100.00
72896;BME280;61036;53.224;6.554;2022-09-28T06:28:13;99567.91;;;6.52;100.00
72896;BME280;61036;53.224;6.554;2022-09-28T06:30:42;99569.97;;;6.48;100.00
72896;BME280;61036;53.224;6.554;2022-09-28T06:33:12;99582.38;;;6.49;100.00
72896;BME280;61036;53.224;6.554;2022-09-28T06:35:39;99577.78;;;6.51;100.00
72896;BME280;61036;53.224;6.554;2022-09-28T06:38:07;99576.69;;;6.54;100.00
72896;BME280;61036;53.224;6.554;2022-09-28T06:40:34;99576.81;;;6.63;100.00
72896;BME280;61036;53.224;6.554;2022-09-28T06:43:06;99585.31;;;6.57;100.00
72896;BME280;61036;53.224;6.554;2022-09-28T06:45:53;99577.66;;;6.64;100.00
72896;BME280;61036;53.224;6.554;2022-09-28T06:48:39;99581.31;;;6.63;100.00
72896;BME280;61036;53.224;6.554;2022-09-28T06:51:06;99579.00;;;6.92;100.00
72896;BME280;61036;53.224;6.554;2022-09-28T06:53:40;99578.16;;;6.80;100.00
72896;BME280;61036;53.224;6.554;2022-09-28T06:56:38;99585.81;;;6.74;100.00
72896;BME280;61036;53.224;6.554;2022-09-28T06:59:05;99584.34;;;6.70;100.00
72896;BME280;61036;53.224;6.554;2022-09-28T07:01:31;99585.69;;;6.75;100.00
72896;BME280;61036;53.224;6.554;2022-09-28T07:04:22;99587.41;;;6.76;100.00
72896;BME280;61036;53.224;6.554;2022-09-28T07:07:13;99588.00;;;6.80;100.00
72896;BME280;61036;53.224;6.554;2022-09-28T07:09:58;99582.88;;;6.88;100.00
72896;BME280;61036;53.224;6.554;2022-09-28T07:13:02;99592.38;;;7.03;100.00
72896;BME280;61036;53.224;6.554;2022-09-28T07:15:33;99593.81;;;7.19;100.00
72896;BME280;61036;53.224;6.554;2022-09-28T07:18:00;99599.56;;;7.25;100.00
72896;BME280;61036;53.224;6.554;2022-09-28T07:20:27;99599.66;;;7.24;100.00
72896;BME280;61036;53.224;6.554;2022-09-28T07:22:58;99591.97;;;7.30;100.00
72896;BME280;61036;53.224;6.554;2022-09-28T07:25:27;99601.09;;;7.50;100.00
72896;BME280;61036;53.224;6.554;2022-09-28T07:28:08;99597.28;;;7.64;100.00
72896;BME280;61036;53.224;6.554;2022-09-28T07:31:03;99596.50;;;7.73;100.00
72896;BME280;61036;53.224;6.554;2022-09-28T07:33:58;99602.41;;;7.67;100.00
72896;BME280;61036;53.224;6.554;2022-09-28T07:36:32;99603.91;;;8.34;100.00
72896;BME280;61036;53.224;6.554;2022-09-28T07:39:03;99607.34;;;9.19;100.00
72896;BME280;61036;53.224;6.554;2022-09-28T07:41:32;99598.47;;;9.47;100.00
72896;BME280;61036;53.224;6.554;2022-09-28T07:44:01;99602.94;;;9.97;100.00
72896;BME280;61036;53.224;6.554;2022-09-28T07:46:33;99600.22;;;9.58;100.00
72896;BME280;61036;53.224;6.554;2022-09-28T07:49:12;99603.22;;;9.84;100.00
72896;BME280;61036;53.224;6.554;2022-09-28T07:51:56;99601.09;;;10.07;100.00
72896;BME280;61036;53.224;6.554;2022-09-28T07:54:27;99605.94;;;10.33;100.00
72896;BME280;61036;53.224;6.554;2022-09-28T07:57:23;99600.69;;;10.31;100.00
72896;BME280;61036;53.224;6.554;2022-09-28T07:59:55;99610.47;;;9.93;100.00
72896;BME280;61036;53.224;6.554;2022-09-28T08:02:47;99603.50;;;10.10;100.00
72896;BME280;61036;53.224;6.554;2022-09-28T08:05:19;99608.19;;;10.37;100.00
72896;BME280;61036;53.224;6.554;2022-09-28T08:07:45;99610.31;;;10.53;100.00
72896;BME280;61036;53.224;6.554;2022-09-28T08:10:14;99609.81;;;10.77;100.00
72896;BME280;61036;53.224;6.554;2022-09-28T08:12:43;99611.19;;;10.91;100.00
72896;BME280;61036;53.224;6.554;2022-09-28T08:15:33;99615.03;;;11.53;100.00
72896;BME280;61036;53.224;6.554;2022-09-28T08:18:30;99612.72;;;13.26;100.00
72896;BME280;61036;53.224;6.554;2022-09-28T08:20:56;99616.22;;;15.32;100.00
72896;BME280;61036;53.224;6.554;2022-09-28T08:23:41;99615.03;;;17.49;100.00
72896;BME280;61036;53.224;6.554;2022-09-28T08:26:07;99618.09;;;15.32;100.00
72896;BME280;61036;53.224;6.554;2022-09-28T08:28:33;99617.38;;;15.86;100.00
72896;BME280;61036;53.224;6.554;2022-09-28T08:31:19;99623.53;;;14.60;100.00
72896;BME280;61036;53.224;6.554;2022-09-28T08:34:07;99632.25;;;13.88;100.00
72896;BME280;61036;53.224;6.554;2022-09-28T08:36:52;99627.47;;;13.05;100.00
72896;BME280;61036;53.224;6.554;2022-09-28T08:39:49;99637.19;;;14.09;100.00
72896;BME280;61036;53.224;6.554;2022-09-28T08:42:44;99631.66;;;14.60;100.00
72896;BME280;61036;53.224;6.554;2022-09-28T08:45:31;99637.38;;;14.16;100.00
72896;BME280;61036;53.224;6.554;2022-09-28T08:48:24;99633.09;;;13.38;100.00
72896;BME280;61036;53.224;6.554;2022-09-28T08:51:41;99641.16;;;12.70;100.00
72896;BME280;61036;53.224;6.554;2022-09-28T08:54:38;99643.59;;;12.63;100.00
72896;BME280;61036;53.224;6.554;2022-09-28T08:57:26;99645.47;;;12.63;100.00
72896;BME280;61036;53.224;6.554;2022-09-28T08:59:57;99647.28;;;12.36;100.00
72896;BME280;61036;53.224;6.554;2022-09-28T09:02:39;99651.91;;;12.62;100.00
72896;BME280;61036;53.224;6.554;2022-09-28T09:05:16;99639.13;;;16.78;100.00
72896;BME280;61036;53.224;6.554;2022-09-28T09:14:01;99650.25;;;15.68;100.00
72896;BME280;61036;53.224;6.554;2022-09-28T09:20:10;99648.56;;;16.67;100.00
72896;BME280;61036;53.224;6.554;2022-09-28T09:25:18;99660.44;;;14.28;100.00
72896;BME280;61036;53.224;6.554;2022-09-28T09:30:35;99653.34;;;13.60;100.00
72896;BME280;61036;53.224;6.554;2022-09-28T09:46:35;99670.50;;;13.85;100.00
72896;BME280;61036;53.224;6.554;2022-09-28T09:49:35;99664.38;;;13.67;100.00
72896;BME280;61036;53.224;6.554;2022-09-28T09:52:21;99662.88;;;14.80;100.00
72896;BME280;61036;53.224;6.554;2022-09-28T09:58:15;99664.00;;;16.52;100.00
72896;BME280;61036;53.224;6.554;2022-09-28T10:00:53;99665.72;;;16.21;100.00
72896;BME280;61036;53.224;6.554;2022-09-28T10:03:44;99672.03;;;14.71;100.00
72896;BME280;61036;53.224;6.554;2022-09-28T10:06:24;99679.84;;;13.91;100.00
72896;BME280;61036;53.224;6.554;2022-09-28T10:09:01;99667.19;;;14.00;100.00
72896;BME280;61036;53.224;6.554;2022-09-28T10:11:31;99673.94;;;14.04;100.00
72896;BME280;61036;53.224;6.554;2022-09-28T10:14:00;99676.09;;;13.76;100.00
72896;BME280;61036;53.224;6.554;2022-09-28T10:16:43;99676.78;;;13.43;100.00
72896;BME280;61036;53.224;6.554;2022-09-28T10:19:18;99680.09;;;13.03;100.00
72896;BME280;61036;53.224;6.554;2022-09-28T10:22:04;99685.22;;;12.88;100.00
72896;BME280;61036;53.224;6.554;2022-09-28T10:24:33;99681.38;;;12.91;100.00
72896;BME280;61036;53.224;6.554;2022-09-28T10:27:10;99684.22;;;12.89;100.00
72896;BME280;61036;53.224;6.554;2022-09-28T10:29:44;99685.41;;;12.69;100.00
72896;BME280;61036;53.224;6.554;2022-09-28T10:32:34;99682.97;;;12.57;100.00
72896;BME280;61036;53.224;6.554;2022-09-28T10:37:56;99683.22;;;12.72;100.00
72896;BME280;61036;53.224;6.554;2022-09-28T10:41:00;99681.50;;;12.89;100.00
72896;BME280;61036;53.224;6.554;2022-09-28T10:43:57;99688.25;;;13.11;100.00
72896;BME280;61036;53.224;6.554;2022-09-28T10:47:01;99680.34;;;13.44;100.00
72896;BME280;61036;53.224;6.554;2022-09-28T10:49:38;99682.72;;;13.47;100.00
72896;BME280;61036;53.224;6.554;2022-09-28T10:52:30;99686.19;;;13.65;100.00
72896;BME280;61036;53.224;6.554;2022-09-28T10:54:56;99678.88;;;13.58;100.00
72896;BME280;61036;53.224;6.554;2022-09-28T10:57:35;99686.41;;;13.12;100.00
72896;BME280;61036;53.224;6.554;2022-09-28T11:00:07;99684.97;;;13.25;100.00
72896;BME280;61036;53.224;6.554;2022-09-28T11:03:34;99683.13;;;13.26;100.00
72896;BME280;61036;53.224;6.554;2022-09-28T11:06:06;99690.28;;;13.09;100.00
72896;BME280;61036;53.224;6.554;2022-09-28T11:08:36;99684.56;;;13.12;100.00
72896;BME280;61036;53.224;6.554;2022-09-28T11:13:53;99686.41;;;13.12;100.00
72896;BME280;61036;53.224;6.554;2022-09-28T11:16:30;99691.06;;;13.01;100.00
72896;BME280;61036;53.224;6.554;2022-09-28T11:19:04;99685.66;;;13.01;100.00
72896;BME280;61036;53.224;6.554;2022-09-28T11:21:40;99692.59;;;13.04;100.00
72896;BME280;61036;53.224;6.554;2022-09-28T11:24:23;99686.09;;;13.15;100.00
72896;BME280;61036;53.224;6.554;2022-09-28T11:26:55;99686.13;;;13.23;100.00
72896;BME280;61036;53.224;6.554;2022-09-28T11:32:02;99687.94;;;13.40;100.00
72896;BME280;61036;53.224;6.554;2022-09-28T11:34:45;99696.19;;;13.31;100.00
72896;BME280;61036;53.224;6.554;2022-09-28T11:37:16;99692.19;;;13.17;100.00
72896;BME280;61036;53.224;6.554;2022-09-28T11:43:00;99688.81;;;13.15;100.00
72896;BME280;61036;53.224;6.554;2022-09-28T11:45:50;99696.47;;;13.01;100.00
72896;BME280;61036;53.224;6.554;2022-09-28T11:51:33;99696.66;;;13.00;100.00
72896;BME280;61036;53.224;6.554;2022-09-28T11:54:07;99699.00;;;13.21;100.00
72896;BME280;61036;53.224;6.554;2022-09-28T11:56:47;99703.69;;;13.19;100.00
72896;BME280;61036;53.224;6.554;2022-09-28T11:59:20;99702.69;;;13.20;100.00
72896;BME280;61036;53.224;6.554;2022-09-28T12:01:55;99711.38;;;13.05;100.00
72896;BME280;61036;53.224;6.554;2022-09-28T12:04:42;99706.13;;;13.04;100.00
72896;BME280;61036;53.224;6.554;2022-09-28T12:14:33;99706.50;;;13.61;100.00
72896;BME280;61036;53.224;6.554;2022-09-28T12:17:04;99711.31;;;13.76;100.00
72896;BME280;61036;53.224;6.554;2022-09-28T12:19:50;99704.25;;;13.91;100.00
72896;BME280;61036;53.224;6.554;2022-09-28T12:22:34;99703.72;;;13.87;100.00
72896;BME280;61036;53.224;6.554;2022-09-28T12:25:03;99707.09;;;13.81;100.00
72896;BME280;61036;53.224;6.554;2022-09-28T12:27:39;99707.53;;;13.68;100.00
72896;BME280;61036;53.224;6.554;2022-09-28T12:30:19;99709.97;;;13.45;100.00
72896;BME280;61036;53.224;6.554;2022-09-28T12:32:49;99711.75;;;13.29;100.00
72896;BME280;61036;53.224;6.554;2022-09-28T12:47:03;99715.88;;;12.35;100.00
72896;BME280;61036;53.224;6.554;2022-09-28T12:52:32;99716.25;;;12.04;100.00
72896;BME280;61036;53.224;6.554;2022-09-28T13:00:36;99715.63;;;11.83;100.00
72896;BME280;61036;53.224;6.554;2022-09-28T13:03:28;99713.50;;;11.86;100.00
72896;BME280;61036;53.224;6.554;2022-09-28T13:11:33;99719.47;;;11.80;100.00
72896;BME280;61036;53.224;6.554;2022-09-28T13:19:58;99716.91;;;11.88;100.00
72896;BME280;61036;53.224;6.554;2022-09-28T13:25:16;99714.00;;;12.71;100.00
72896;BME280;61036;53.224;6.554;2022-09-28T13:27:49;99706.28;;;13.02;100.00
72896;BME280;61036;53.224;6.554;2022-09-28T13:30:18;99700.06;;;13.28;100.00
72896;BME280;61036;53.224;6.554;2022-09-28T13:32:44;99703.00;;;13.77;100.00
72896;BME280;61036;53.224;6.554;2022-09-28T13:35:16;99705.22;;;13.82;100.00
72896;BME280;61036;53.224;6.554;2022-09-28T13:37:48;99709.97;;;13.80;100.00
72896;BME280;61036;53.224;6.554;2022-09-28T13:54:35;99705.75;;;14.52;100.00
72896;BME280;61036;53.224;6.554;2022-09-28T14:00:36;99703.53;;;14.97;100.00
72896;BME280;61036;53.224;6.554;2022-09-28T14:03:21;99706.41;;;15.12;100.00
72896;BME280;61036;53.224;6.554;2022-09-28T14:05:52;99707.28;;;14.63;100.00
72896;BME280;61036;53.224;6.554;2022-09-28T14:08:44;99704.19;;;14.33;100.00
72896;BME280;61036;53.224;6.554;2022-09-28T14:13:59;99714.31;;;14.15;100.00
72896;BME280;61036;53.224;6.554;2022-09-28T14:16:29;99708.56;;;14.18;100.00
72896;BME280;61036;53.224;6.554;2022-09-28T14:19:07;99712.09;;;14.02;100.00
72896;BME280;61036;53.224;6.554;2022-09-28T14:25:21;99710.94;;;13.70;100.00
72896;BME280;61036;53.224;6.554;2022-09-28T14:30:47;99718.75;;;13.73;100.00
72896;BME280;61036;53.224;6.554;2022-09-28T14:35:53;99724.31;;;14.23;100.00
72896;BME280;61036;53.224;6.554;2022-09-28T14:38:28;99728.31;;;14.61;100.00
72896;BME280;61036;53.224;6.554;2022-09-28T14:41:30;99732.38;;;15.14;100.00
72896;BME280;61036;53.224;6.554;2022-09-28T14:44:06;99728.44;;;15.25;100.00
72896;BME280;61036;53.224;6.554;2022-09-28T14:46:34;99734.41;;;15.04;100.00
72896;BME280;61036;53.224;6.554;2022-09-28T14:54:19;99739.50;;;15.31;100.00
72896;BME280;61036;53.224;6.554;2022-09-28T15:01:56;99746.91;;;15.70;100.00
72896;BME280;61036;53.224;6.554;2022-09-28T15:04:26;99748.44;;;15.57;100.00
72896;BME280;61036;53.224;6.554;2022-09-28T15:06:57;99738.84;;;15.85;100.00
72896;BME280;61036;53.224;6.554;2022-09-28T15:09:32;99744.19;;;15.54;100.00
72896;BME280;61036;53.224;6.554;2022-09-28T15:14:26;99744.09;;;15.15;100.00
72896;BME280;61036;53.224;6.554;2022-09-28T15:16:56;99753.75;;;15.01;100.00
72896;BME280;61036;53.224;6.554;2022-09-28T15:19:56;99745.75;;;14.50;100.00
72896;BME280;61036;53.224;6.554;2022-09-28T15:22:18;99753.69;;;14.35;100.00
72896;BME280;61036;53.224;6.554;2022-09-28T15:24:53;99741.97;;;14.27;100.00
72896;BME280;61036;53.224;6.554;2022-09-28T15:27:19;99748.72;;;14.14;100.00
72896;BME280;61036;53.224;6.554;2022-09-28T15:29:59;99748.34;;;14.09;100.00
72896;BME280;61036;53.224;6.554;2022-09-28T15:32:27;99757.75;;;13.89;100.00
72896;BME280;61036;53.224;6.554;2022-09-28T15:35:09;99760.63;;;13.53;100.00
72896;BME280;61036;53.224;6.554;2022-09-28T15:37:38;99763.53;;;13.60;100.00
72896;BME280;61036;53.224;6.554;2022-09-28T15:40:18;99758.22;;;13.42;100.00
72896;BME280;61036;53.224;6.554;2022-09-28T15:42:46;99762.84;;;13.32;100.00
72896;BME280;61036;53.224;6.554;2022-09-28T15:47:53;99766.97;;;13.18;100.00
72896;BME280;61036;53.224;6.554;2022-09-28T15:50:27;99767.63;;;13.12;100.00
72896;BME280;61036;53.224;6.554;2022-09-28T15:53:02;99770.47;;;13.10;100.00
72896;BME280;61036;53.224;6.554;2022-09-28T15:55:36;99765.03;;;13.28;100.00
72896;BME280;61036;53.224;6.554;2022-09-28T16:00:40;99775.56;;;13.13;100.00
72896;BME280;61036;53.224;6.554;2022-09-28T16:05:51;99782.13;;;13.11;100.00
72896;BME280;61036;53.224;6.554;2022-09-28T16:11:12;99789.34;;;12.84;100.00
72896;BME280;61036;53.224;6.554;2022-09-28T16:14:06;99785.66;;;12.67;100.00
72896;BME280;61036;53.224;6.554;2022-09-28T16:16:47;99802.00;;;12.48;100.00
72896;BME280;61036;53.224;6.554;2022-09-28T16:19:36;99791.13;;;12.12;100.00
72896;BME280;61036;53.224;6.554;2022-09-28T16:22:06;99789.44;;;12.11;100.00
72896;BME280;61036;53.224;6.554;2022-09-28T16:24:37;99797.13;;;12.16;100.00
72896;BME280;61036;53.224;6.554;2022-09-28T16:27:22;99789.97;;;12.15;100.00
72896;BME280;61036;53.224;6.554;2022-09-28T16:33:26;99789.69;;;12.18;100.00
72896;BME280;61036;53.224;6.554;2022-09-28T16:35:53;99795.38;;;12.15;100.00
72896;BME280;61036;53.224;6.554;2022-09-28T16:38:19;99792.75;;;12.05;100.00
72896;BME280;61036;53.224;6.554;2022-09-28T16:40:52;99794.91;;;12.01;100.00
72896;BME280;61036;53.224;6.554;2022-09-28T16:43:25;99793.66;;;11.96;100.00
72896;BME280;61036;53.224;6.554;2022-09-28T16:45:55;99796.09;;;11.89;100.00
72896;BME280;61036;53.224;6.554;2022-09-28T16:48:26;99793.72;;;11.66;100.00